sensor_id;sensor_type;location;lat;lon;timestamp;temperature;humidity
65038;DHT22;51605;47.040;15.294;2022-08-05T00:01:23;25.20;37.90
65038;DHT22;51605;47.040;15.294;2022-08-05T00:03:49;25.20;37.90
65038;DHT22;51605;47.040;15.294;2022-08-05T00:06:16;25.20;37.80
65038;DHT22;51605;47.040;15.294;2022-08-05T00:08:42;25.20;37.80
65038;DHT22;51605;47.040;15.294;2022-08-05T00:11:11;25.20;38.80
65038;DHT22;51605;47.040;15.294;2022-08-05T00:13:39;25.30;38.70
65038;DHT22;51605;47.040;15.294;2022-08-05T00:16:07;25.30;38.70
65038;DHT22;51605;47.040;15.294;2022-08-05T00:18:34;25.20;38.50
65038;DHT22;51605;47.040;15.294;2022-08-05T00:21:00;25.20;38.40
65038;DHT22;51605;47.040;15.294;2022-08-05T00:23:25;25.20;38.30
65038;DHT22;51605;47.040;15.294;2022-08-05T00:25:51;25.20;38.30
65038;DHT22;51605;47.040;15.294;2022-08-05T00:28:16;25.20;38.20
65038;DHT22;51605;47.040;15.294;2022-08-05T00:30:42;25.20;38.20
65038;DHT22;51605;47.040;15.294;2022-08-05T00:33:08;25.20;38.00
65038;DHT22;51605;47.040;15.294;2022-08-05T00:35:34;25.20;38.00
65038;DHT22;51605;47.040;15.294;2022-08-05T00:38:00;25.20;38.00
65038;DHT22;51605;47.040;15.294;2022-08-05T00:40:27;25.20;37.90
65038;DHT22;51605;47.040;15.294;2022-08-05T00:42:53;25.20;37.90
65038;DHT22;51605;47.040;15.294;2022-08-05T00:45:18;25.20;37.80
65038;DHT22;51605;47.040;15.294;2022-08-05T00:47:44;25.20;38.80
65038;DHT22;51605;47.040;15.294;2022-08-05T00:50:10;25.20;38.90
65038;DHT22;51605;47.040;15.294;2022-08-05T00:52:36;25.20;38.80
65038;DHT22;51605;47.040;15.294;2022-08-05T00:55:02;25.20;39.40
65038;DHT22;51605;47.040;15.294;2022-08-05T00:57:28;25.10;39.40
65038;DHT22;51605;47.040;15.294;2022-08-05T00:59:54;25.20;39.40
65038;DHT22;51605;47.040;15.294;2022-08-05T01:02:19;25.10;39.10
65038;DHT22;51605;47.040;15.294;2022-08-05T01:04:45;25.10;38.90
65038;DHT22;51605;47.040;15.294;2022-08-05T01:07:11;25.10;38.70
65038;DHT22;51605;47.040;15.294;2022-08-05T01:09:36;25.10;38.70
65038;DHT22;51605;47.040;15.294;2022-08-05T01:12:05;25.10;38.50
65038;DHT22;51605;47.040;15.294;2022-08-05T01:17:13;25.20;38.30
65038;DHT22;51605;47.040;15.294;2022-08-05T01:19:54;25.10;38.20
65038;DHT22;51605;47.040;15.294;2022-08-05T01:25:28;25.20;38.10
65038;DHT22;51605;47.040;15.294;2022-08-05T01:28:31;25.20;39.10
65038;DHT22;51605;47.040;15.294;2022-08-05T01:31:11;25.20;38.90
65038;DHT22;51605;47.040;15.294;2022-08-05T01:36:30;25.20;37.90
65038;DHT22;51605;47.040;15.294;2022-08-05T01:38:58;25.20;37.90
65038;DHT22;51605;47.040;15.294;2022-08-05T01:41:26;25.20;38.00
65038;DHT22;51605;47.040;15.294;2022-08-05T01:43:53;25.20;39.00
65038;DHT22;51605;47.040;15.294;2022-08-05T01:46:20;25.20;38.80
65038;DHT22;51605;47.040;15.294;2022-08-05T01:48:47;25.20;38.70
65038;DHT22;51605;47.040;15.294;2022-08-05T01:51:16;25.20;39.40
65038;DHT22;51605;47.040;15.294;2022-08-05T01:53:43;25.20;39.40
65038;DHT22;51605;47.040;15.294;2022-08-05T01:56:12;25.20;39.40
65038;DHT22;51605;47.040;15.294;2022-08-05T01:58:40;25.20;39.10
65038;DHT22;51605;47.040;15.294;2022-08-05T02:01:07;25.10;38.80
65038;DHT22;51605;47.040;15.294;2022-08-05T02:03:37;25.10;38.70
65038;DHT22;51605;47.040;15.294;2022-08-05T02:06:05;25.10;38.50
65038;DHT22;51605;47.040;15.294;2022-08-05T02:08:32;25.10;38.50
65038;DHT22;51605;47.040;15.294;2022-08-05T02:10:59;25.10;38.40
65038;DHT22;51605;47.040;15.294;2022-08-05T02:13:32;25.10;38.20
65038;DHT22;51605;47.040;15.294;2022-08-05T02:16:06;25.20;38.10
65038;DHT22;51605;47.040;15.294;2022-08-05T02:18:44;25.20;38.10
65038;DHT22;51605;47.040;15.294;2022-08-05T02:21:16;25.20;38.00
65038;DHT22;51605;47.040;15.294;2022-08-05T02:23:49;25.20;38.00
65038;DHT22;51605;47.040;15.294;2022-08-05T02:26:21;25.20;38.00
65038;DHT22;51605;47.040;15.294;2022-08-05T02:28:48;25.20;37.90
65038;DHT22;51605;47.040;15.294;2022-08-05T02:31:18;25.20;37.90
65038;DHT22;51605;47.040;15.294;2022-08-05T02:33:54;25.20;38.80
65038;DHT22;51605;47.040;15.294;2022-08-05T02:36:22;25.20;38.80
65038;DHT22;51605;47.040;15.294;2022-08-05T02:38:49;25.20;38.80
65038;DHT22;51605;47.040;15.294;2022-08-05T02:41:17;25.20;40.30
65038;DHT22;51605;47.040;15.294;2022-08-05T02:43:46;25.20;39.60
65038;DHT22;51605;47.040;15.294;2022-08-05T02:46:16;25.20;39.40
65038;DHT22;51605;47.040;15.294;2022-08-05T02:48:43;25.10;39.10
65038;DHT22;51605;47.040;15.294;2022-08-05T02:51:09;25.10;38.80
65038;DHT22;51605;47.040;15.294;2022-08-05T02:53:37;25.20;38.70
65038;DHT22;51605;47.040;15.294;2022-08-05T02:56:04;25.20;38.50
65038;DHT22;51605;47.040;15.294;2022-08-05T02:58:31;25.20;38.40
65038;DHT22;51605;47.040;15.294;2022-08-05T03:01:00;25.10;38.30
65038;DHT22;51605;47.040;15.294;2022-08-05T03:03:28;25.20;38.40
65038;DHT22;51605;47.040;15.294;2022-08-05T03:05:54;25.20;38.30
65038;DHT22;51605;47.040;15.294;2022-08-05T03:08:22;25.20;38.20
65038;DHT22;51605;47.040;15.294;2022-08-05T03:10:48;25.20;38.10
65038;DHT22;51605;47.040;15.294;2022-08-05T03:13:15;25.20;38.00
65038;DHT22;51605;47.040;15.294;2022-08-05T03:15:42;25.20;38.00
65038;DHT22;51605;47.040;15.294;2022-08-05T03:18:08;25.20;38.00
65038;DHT22;51605;47.040;15.294;2022-08-05T03:20:34;25.20;38.70
65038;DHT22;51605;47.040;15.294;2022-08-05T03:23:00;25.20;38.90
65038;DHT22;51605;47.040;15.294;2022-08-05T03:25:26;25.20;38.80
65038;DHT22;51605;47.040;15.294;2022-08-05T03:27:54;25.20;39.50
65038;DHT22;51605;47.040;15.294;2022-08-05T03:30:22;25.20;39.70
65038;DHT22;51605;47.040;15.294;2022-08-05T03:32:49;25.20;39.40
65038;DHT22;51605;47.040;15.294;2022-08-05T03:35:15;25.20;39.10
65038;DHT22;51605;47.040;15.294;2022-08-05T03:37:41;25.10;38.90
65038;DHT22;51605;47.040;15.294;2022-08-05T03:40:07;25.20;38.80
65038;DHT22;51605;47.040;15.294;2022-08-05T03:42:34;25.10;38.60
65038;DHT22;51605;47.040;15.294;2022-08-05T03:45:00;25.20;38.50
65038;DHT22;51605;47.040;15.294;2022-08-05T03:47:26;25.20;38.50
65038;DHT22;51605;47.040;15.294;2022-08-05T03:49:52;25.20;38.30
65038;DHT22;51605;47.040;15.294;2022-08-05T03:52:23;25.20;38.30
65038;DHT22;51605;47.040;15.294;2022-08-05T03:55:01;25.20;38.10
65038;DHT22;51605;47.040;15.294;2022-08-05T03:57:30;25.20;38.00
65038;DHT22;51605;47.040;15.294;2022-08-05T04:00:09;25.20;38.80
65038;DHT22;51605;47.040;15.294;2022-08-05T04:02:35;25.20;39.80
65038;DHT22;51605;47.040;15.294;2022-08-05T04:05:03;25.20;39.60
65038;DHT22;51605;47.040;15.294;2022-08-05T04:07:30;25.20;39.00
65038;DHT22;51605;47.040;15.294;2022-08-05T04:09:56;25.20;38.90
65038;DHT22;51605;47.040;15.294;2022-08-05T04:12:23;25.30;39.30
65038;DHT22;51605;47.040;15.294;2022-08-05T04:14:49;25.30;38.90
65038;DHT22;51605;47.040;15.294;2022-08-05T04:17:15;25.30;39.30
65038;DHT22;51605;47.040;15.294;2022-08-05T04:19:42;25.20;40.00
65038;DHT22;51605;47.040;15.294;2022-08-05T04:22:08;25.20;39.90
65038;DHT22;51605;47.040;15.294;2022-08-05T04:24:36;25.20;39.50
65038;DHT22;51605;47.040;15.294;2022-08-05T04:27:01;25.20;39.30
65038;DHT22;51605;47.040;15.294;2022-08-05T04:29:27;25.30;39.20
65038;DHT22;51605;47.040;15.294;2022-08-05T04:31:52;25.30;39.10
65038;DHT22;51605;47.040;15.294;2022-08-05T04:34:18;25.30;39.50
65038;DHT22;51605;47.040;15.294;2022-08-05T04:36:44;25.30;38.90
65038;DHT22;51605;47.040;15.294;2022-08-05T04:39:09;25.30;38.80
65038;DHT22;51605;47.040;15.294;2022-08-05T04:41:35;25.30;38.80
65038;DHT22;51605;47.040;15.294;2022-08-05T04:44:01;25.30;38.80
65038;DHT22;51605;47.040;15.294;2022-08-05T04:46:26;25.30;38.70
65038;DHT22;51605;47.040;15.294;2022-08-05T04:48:52;25.40;38.70
65038;DHT22;51605;47.040;15.294;2022-08-05T04:51:17;25.30;39.10
65038;DHT22;51605;47.040;15.294;2022-08-05T04:53:43;25.30;39.80
65038;DHT22;51605;47.040;15.294;2022-08-05T04:56:09;25.30;39.80
65038;DHT22;51605;47.040;15.294;2022-08-05T04:58:34;25.40;39.50
65038;DHT22;51605;47.040;15.294;2022-08-05T05:01:02;25.30;39.10
65038;DHT22;51605;47.040;15.294;2022-08-05T05:03:27;25.30;39.10
65038;DHT22;51605;47.040;15.294;2022-08-05T05:05:53;25.30;38.90
65038;DHT22;51605;47.040;15.294;2022-08-05T05:08:18;25.40;38.90
65038;DHT22;51605;47.040;15.294;2022-08-05T05:10:45;25.40;38.80
65038;DHT22;51605;47.040;15.294;2022-08-05T05:13:13;25.40;38.70
65038;DHT22;51605;47.040;15.294;2022-08-05T05:15:39;25.40;38.50
65038;DHT22;51605;47.040;15.294;2022-08-05T05:18:06;25.40;38.40
65038;DHT22;51605;47.040;15.294;2022-08-05T05:20:32;25.40;38.40
65038;DHT22;51605;47.040;15.294;2022-08-05T05:22:59;25.40;38.30
65038;DHT22;51605;47.040;15.294;2022-08-05T05:25:26;25.40;38.30
65038;DHT22;51605;47.040;15.294;2022-08-05T05:27:52;25.40;38.20
65038;DHT22;51605;47.040;15.294;2022-08-05T05:30:18;25.40;38.20
65038;DHT22;51605;47.040;15.294;2022-08-05T05:32:44;25.40;38.10
65038;DHT22;51605;47.040;15.294;2022-08-05T05:35:10;25.40;38.00
65038;DHT22;51605;47.040;15.294;2022-08-05T05:37:55;25.40;38.00
65038;DHT22;51605;47.040;15.294;2022-08-05T05:40:23;25.40;37.80
65038;DHT22;51605;47.040;15.294;2022-08-05T05:42:49;25.40;37.80
65038;DHT22;51605;47.040;15.294;2022-08-05T05:45:16;25.40;38.70
65038;DHT22;51605;47.040;15.294;2022-08-05T05:47:42;25.40;39.10
65038;DHT22;51605;47.040;15.294;2022-08-05T05:50:10;25.40;38.80
65038;DHT22;51605;47.040;15.294;2022-08-05T05:52:36;25.30;39.40
65038;DHT22;51605;47.040;15.294;2022-08-05T05:55:03;25.30;40.50
65038;DHT22;51605;47.040;15.294;2022-08-05T05:57:29;25.30;39.50
65038;DHT22;51605;47.040;15.294;2022-08-05T05:59:55;25.30;39.10
65038;DHT22;51605;47.040;15.294;2022-08-05T06:02:21;25.30;38.90
65038;DHT22;51605;47.040;15.294;2022-08-05T06:04:46;25.30;38.70
65038;DHT22;51605;47.040;15.294;2022-08-05T06:07:12;25.30;38.50
65038;DHT22;51605;47.040;15.294;2022-08-05T06:09:38;25.30;38.50
65038;DHT22;51605;47.040;15.294;2022-08-05T06:12:04;25.30;38.30
65038;DHT22;51605;47.040;15.294;2022-08-05T06:14:30;25.30;38.30
65038;DHT22;51605;47.040;15.294;2022-08-05T06:16:56;25.30;38.20
65038;DHT22;51605;47.040;15.294;2022-08-05T06:19:22;25.30;38.10
65038;DHT22;51605;47.040;15.294;2022-08-05T06:21:48;25.40;38.10
65038;DHT22;51605;47.040;15.294;2022-08-05T06:24:13;25.40;38.10
65038;DHT22;51605;47.040;15.294;2022-08-05T06:26:42;25.30;37.90
65038;DHT22;51605;47.040;15.294;2022-08-05T06:29:08;25.40;37.90
65038;DHT22;51605;47.040;15.294;2022-08-05T06:31:33;25.40;37.80
65038;DHT22;51605;47.040;15.294;2022-08-05T06:33:59;25.40;37.80
65038;DHT22;51605;47.040;15.294;2022-08-05T06:36:25;25.30;37.70
65038;DHT22;51605;47.040;15.294;2022-08-05T06:38:50;25.40;37.80
65038;DHT22;51605;47.040;15.294;2022-08-05T06:41:19;25.40;37.70
65038;DHT22;51605;47.040;15.294;2022-08-05T06:43:45;25.30;38.20
65038;DHT22;51605;47.040;15.294;2022-08-05T06:46:11;25.30;38.70
65038;DHT22;51605;47.040;15.294;2022-08-05T06:48:36;25.40;38.90
65038;DHT22;51605;47.040;15.294;2022-08-05T06:51:03;25.40;39.10
65038;DHT22;51605;47.040;15.294;2022-08-05T06:53:29;25.30;39.50
65038;DHT22;51605;47.040;15.294;2022-08-05T06:55:58;25.30;39.50
65038;DHT22;51605;47.040;15.294;2022-08-05T06:58:25;25.30;39.00
65038;DHT22;51605;47.040;15.294;2022-08-05T07:00:51;25.30;38.70
65038;DHT22;51605;47.040;15.294;2022-08-05T07:03:17;25.30;38.60
65038;DHT22;51605;47.040;15.294;2022-08-05T07:05:43;25.30;38.40
65038;DHT22;51605;47.040;15.294;2022-08-05T07:08:09;25.30;38.30
65038;DHT22;51605;47.040;15.294;2022-08-05T07:10:34;25.30;38.30
65038;DHT22;51605;47.040;15.294;2022-08-05T07:13:00;25.30;38.10
65038;DHT22;51605;47.040;15.294;2022-08-05T07:15:44;25.30;38.00
65038;DHT22;51605;47.040;15.294;2022-08-05T07:18:29;25.30;37.90
65038;DHT22;51605;47.040;15.294;2022-08-05T07:20:54;25.30;37.90
65038;DHT22;51605;47.040;15.294;2022-08-05T07:23:20;25.30;37.80
65038;DHT22;51605;47.040;15.294;2022-08-05T07:25:45;25.30;37.70
65038;DHT22;51605;47.040;15.294;2022-08-05T07:28:11;25.30;38.30
65038;DHT22;51605;47.040;15.294;2022-08-05T07:30:37;25.40;38.90
65038;DHT22;51605;47.040;15.294;2022-08-05T07:33:05;25.40;38.80
65038;DHT22;51605;47.040;15.294;2022-08-05T07:35:31;25.30;39.00
65038;DHT22;51605;47.040;15.294;2022-08-05T07:37:56;25.30;39.50
65038;DHT22;51605;47.040;15.294;2022-08-05T07:40:22;25.30;39.40
65038;DHT22;51605;47.040;15.294;2022-08-05T07:42:48;25.30;39.10
65038;DHT22;51605;47.040;15.294;2022-08-05T07:45:14;25.30;40.00
65038;DHT22;51605;47.040;15.294;2022-08-05T07:47:40;25.30;40.20
65038;DHT22;51605;47.040;15.294;2022-08-05T07:50:06;25.20;39.50
65038;DHT22;51605;47.040;15.294;2022-08-05T07:52:38;25.30;39.40
65038;DHT22;51605;47.040;15.294;2022-08-05T07:55:04;25.20;39.00
65038;DHT22;51605;47.040;15.294;2022-08-05T07:57:30;25.20;38.80
65038;DHT22;51605;47.040;15.294;2022-08-05T07:59:55;25.30;39.50
65038;DHT22;51605;47.040;15.294;2022-08-05T08:02:25;25.20;39.90
65038;DHT22;51605;47.040;15.294;2022-08-05T08:04:52;25.20;39.80
65038;DHT22;51605;47.040;15.294;2022-08-05T08:07:19;25.20;39.40
65038;DHT22;51605;47.040;15.294;2022-08-05T08:09:46;25.20;39.20
65038;DHT22;51605;47.040;15.294;2022-08-05T08:12:12;25.20;38.90
65038;DHT22;51605;47.040;15.294;2022-08-05T08:14:41;25.30;38.90
65038;DHT22;51605;47.040;15.294;2022-08-05T08:17:07;25.20;38.70
65038;DHT22;51605;47.040;15.294;2022-08-05T08:19:36;25.30;38.70
65038;DHT22;51605;47.040;15.294;2022-08-05T08:22:01;25.30;38.50
65038;DHT22;51605;47.040;15.294;2022-08-05T08:24:28;25.30;38.30
65038;DHT22;51605;47.040;15.294;2022-08-05T08:26:54;25.30;38.20
65038;DHT22;51605;47.040;15.294;2022-08-05T08:29:20;25.30;38.20
65038;DHT22;51605;47.040;15.294;2022-08-05T08:31:45;25.30;38.00
65038;DHT22;51605;47.040;15.294;2022-08-05T08:34:11;25.30;38.00
65038;DHT22;51605;47.040;15.294;2022-08-05T08:36:37;25.30;37.90
65038;DHT22;51605;47.040;15.294;2022-08-05T08:39:03;25.30;37.80
65038;DHT22;51605;47.040;15.294;2022-08-05T08:41:32;25.40;37.80
65038;DHT22;51605;47.040;15.294;2022-08-05T08:43:58;25.40;37.80
65038;DHT22;51605;47.040;15.294;2022-08-05T08:46:28;25.40;37.80
65038;DHT22;51605;47.040;15.294;2022-08-05T08:48:56;25.30;37.70
65038;DHT22;51605;47.040;15.294;2022-08-05T08:51:23;25.40;37.80
65038;DHT22;51605;47.040;15.294;2022-08-05T08:53:52;25.30;38.90
65038;DHT22;51605;47.040;15.294;2022-08-05T08:56:18;25.30;38.70
65038;DHT22;51605;47.040;15.294;2022-08-05T08:58:46;25.30;38.70
65038;DHT22;51605;47.040;15.294;2022-08-05T09:01:12;25.30;39.50
65038;DHT22;51605;47.040;15.294;2022-08-05T09:03:39;25.30;39.50
65038;DHT22;51605;47.040;15.294;2022-08-05T09:06:05;25.30;39.40
65038;DHT22;51605;47.040;15.294;2022-08-05T09:08:31;25.20;40.10
65038;DHT22;51605;47.040;15.294;2022-08-05T09:10:57;25.20;39.80
65038;DHT22;51605;47.040;15.294;2022-08-05T09:13:24;25.20;39.40
65038;DHT22;51605;47.040;15.294;2022-08-05T09:15:50;25.20;39.20
65038;DHT22;51605;47.040;15.294;2022-08-05T09:18:16;25.20;39.00
65038;DHT22;51605;47.040;15.294;2022-08-05T09:20:43;25.20;38.80
65038;DHT22;51605;47.040;15.294;2022-08-05T09:23:14;25.20;38.80
65038;DHT22;51605;47.040;15.294;2022-08-05T09:25:43;25.20;39.90
65038;DHT22;51605;47.040;15.294;2022-08-05T09:28:17;25.20;39.70
65038;DHT22;51605;47.040;15.294;2022-08-05T09:30:55;25.20;39.50
65038;DHT22;51605;47.040;15.294;2022-08-05T09:33:21;25.20;39.20
65038;DHT22;51605;47.040;15.294;2022-08-05T09:36:01;25.20;38.90
65038;DHT22;51605;47.040;15.294;2022-08-05T09:38:28;25.20;38.70
65038;DHT22;51605;47.040;15.294;2022-08-05T09:41:04;25.30;38.70
65038;DHT22;51605;47.040;15.294;2022-08-05T09:43:36;25.30;38.60
65038;DHT22;51605;47.040;15.294;2022-08-05T09:46:03;25.30;38.60
65038;DHT22;51605;47.040;15.294;2022-08-05T09:48:33;25.30;38.40
65038;DHT22;51605;47.040;15.294;2022-08-05T09:51:03;25.30;38.30
65038;DHT22;51605;47.040;15.294;2022-08-05T09:53:45;25.30;38.30
65038;DHT22;51605;47.040;15.294;2022-08-05T09:56:11;25.30;38.20
65038;DHT22;51605;47.040;15.294;2022-08-05T09:58:37;25.30;38.10
65038;DHT22;51605;47.040;15.294;2022-08-05T10:01:04;25.30;38.00
65038;DHT22;51605;47.040;15.294;2022-08-05T10:03:30;25.30;38.00
65038;DHT22;51605;47.040;15.294;2022-08-05T10:06:04;25.30;38.00
65038;DHT22;51605;47.040;15.294;2022-08-05T10:08:30;25.30;39.40
65038;DHT22;51605;47.040;15.294;2022-08-05T10:10:56;25.30;39.10
65038;DHT22;51605;47.040;15.294;2022-08-05T10:13:40;25.30;38.90
65038;DHT22;51605;47.040;15.294;2022-08-05T10:16:27;25.20;40.20
65038;DHT22;51605;47.040;15.294;2022-08-05T10:18:54;25.20;40.00
65038;DHT22;51605;47.040;15.294;2022-08-05T10:21:19;25.30;39.50
65038;DHT22;51605;47.040;15.294;2022-08-05T10:23:46;25.20;39.10
65038;DHT22;51605;47.040;15.294;2022-08-05T10:26:12;25.20;38.90
65038;DHT22;51605;47.040;15.294;2022-08-05T10:28:39;25.20;38.80
65038;DHT22;51605;47.040;15.294;2022-08-05T10:31:06;25.20;38.60
65038;DHT22;51605;47.040;15.294;2022-08-05T10:33:33;25.30;38.50
65038;DHT22;51605;47.040;15.294;2022-08-05T10:36:00;25.30;38.60
65038;DHT22;51605;47.040;15.294;2022-08-05T10:38:30;25.30;38.40
65038;DHT22;51605;47.040;15.294;2022-08-05T10:46:14;25.30;38.00
65038;DHT22;51605;47.040;15.294;2022-08-05T10:48:42;25.40;38.00
65038;DHT22;51605;47.040;15.294;2022-08-05T10:51:10;25.40;38.50
65038;DHT22;51605;47.040;15.294;2022-08-05T10:53:52;25.30;39.30
65038;DHT22;51605;47.040;15.294;2022-08-05T10:56:24;25.30;39.30
65038;DHT22;51605;47.040;15.294;2022-08-05T10:59:10;25.30;39.50
65038;DHT22;51605;47.040;15.294;2022-08-05T11:01:41;25.20;40.10
65038;DHT22;51605;47.040;15.294;2022-08-05T11:04:18;25.20;39.70
65038;DHT22;51605;47.040;15.294;2022-08-05T11:09:46;25.20;39.00
65038;DHT22;51605;47.040;15.294;2022-08-05T11:17:42;25.30;38.50
65038;DHT22;51605;47.040;15.294;2022-08-05T11:20:31;25.30;38.50
65038;DHT22;51605;47.040;15.294;2022-08-05T11:22:58;25.30;38.30
65038;DHT22;51605;47.040;15.294;2022-08-05T11:28:35;25.30;38.20
65038;DHT22;51605;47.040;15.294;2022-08-05T11:33:33;25.30;38.00
65038;DHT22;51605;47.040;15.294;2022-08-05T11:43:43;25.30;39.20
65038;DHT22;51605;47.040;15.294;2022-08-05T11:46:09;25.30;39.40
65038;DHT22;51605;47.040;15.294;2022-08-05T11:48:35;25.20;40.00
65038;DHT22;51605;47.040;15.294;2022-08-05T11:51:06;25.20;39.80
65038;DHT22;51605;47.040;15.294;2022-08-05T11:53:32;25.20;39.80
65038;DHT22;51605;47.040;15.294;2022-08-05T11:56:00;25.10;40.30
65038;DHT22;51605;47.040;15.294;2022-08-05T11:58:35;25.20;40.20
65038;DHT22;51605;47.040;15.294;2022-08-05T12:01:04;25.20;39.70
65038;DHT22;51605;47.040;15.294;2022-08-05T12:03:52;25.20;39.40
65038;DHT22;51605;47.040;15.294;2022-08-05T12:06:28;25.20;39.20
65038;DHT22;51605;47.040;15.294;2022-08-05T12:08:58;25.20;38.90
65038;DHT22;51605;47.040;15.294;2022-08-05T12:11:28;25.20;38.70
65038;DHT22;51605;47.040;15.294;2022-08-05T12:16:26;25.30;38.50
65038;DHT22;51605;47.040;15.294;2022-08-05T12:18:52;25.20;38.40
65038;DHT22;51605;47.040;15.294;2022-08-05T12:24:18;25.30;38.30
65038;DHT22;51605;47.040;15.294;2022-08-05T12:26:50;25.30;38.20
65038;DHT22;51605;47.040;15.294;2022-08-05T12:29:21;25.30;38.10
65038;DHT22;51605;47.040;15.294;2022-08-05T12:31:56;25.30;38.00
65038;DHT22;51605;47.040;15.294;2022-08-05T12:34:28;25.30;38.00
65038;DHT22;51605;47.040;15.294;2022-08-05T12:37:00;25.30;37.90
65038;DHT22;51605;47.040;15.294;2022-08-05T12:39:31;25.30;37.80
65038;DHT22;51605;47.040;15.294;2022-08-05T12:41:58;25.30;37.70
65038;DHT22;51605;47.040;15.294;2022-08-05T12:44:24;25.30;38.80
65038;DHT22;51605;47.040;15.294;2022-08-05T12:46:52;25.30;38.80
65038;DHT22;51605;47.040;15.294;2022-08-05T12:49:17;25.30;38.70
65038;DHT22;51605;47.040;15.294;2022-08-05T12:51:59;25.30;39.60
65038;DHT22;51605;47.040;15.294;2022-08-05T12:54:29;25.30;39.70
65038;DHT22;51605;47.040;15.294;2022-08-05T12:57:00;25.20;39.20
65038;DHT22;51605;47.040;15.294;2022-08-05T12:59:32;25.30;39.90
65038;DHT22;51605;47.040;15.294;2022-08-05T13:02:06;25.20;40.00
65038;DHT22;51605;47.040;15.294;2022-08-05T13:04:35;25.20;39.70
65038;DHT22;51605;47.040;15.294;2022-08-05T13:07:04;25.20;39.40
65038;DHT22;51605;47.040;15.294;2022-08-05T13:09:32;25.20;39.20
65038;DHT22;51605;47.040;15.294;2022-08-05T13:12:07;25.20;38.90
65038;DHT22;51605;47.040;15.294;2022-08-05T13:14:56;25.20;38.70
65038;DHT22;51605;47.040;15.294;2022-08-05T13:17:27;25.20;38.60
65038;DHT22;51605;47.040;15.294;2022-08-05T13:20:14;25.20;39.40
65038;DHT22;51605;47.040;15.294;2022-08-05T13:23:06;25.20;39.80
65038;DHT22;51605;47.040;15.294;2022-08-05T13:25:32;25.20;39.40
65038;DHT22;51605;47.040;15.294;2022-08-05T13:27:59;25.20;39.20
65038;DHT22;51605;47.040;15.294;2022-08-05T13:30:26;25.30;38.90
65038;DHT22;51605;47.040;15.294;2022-08-05T13:32:52;25.20;38.80
65038;DHT22;51605;47.040;15.294;2022-08-05T13:35:18;25.20;39.10
65038;DHT22;51605;47.040;15.294;2022-08-05T13:37:44;25.20;39.90
65038;DHT22;51605;47.040;15.294;2022-08-05T13:40:11;25.20;39.90
65038;DHT22;51605;47.040;15.294;2022-08-05T13:42:37;25.30;39.50
65038;DHT22;51605;47.040;15.294;2022-08-05T13:45:04;25.20;39.10
65038;DHT22;51605;47.040;15.294;2022-08-05T13:47:32;25.30;39.10
65038;DHT22;51605;47.040;15.294;2022-08-05T13:49:59;25.30;38.80
65038;DHT22;51605;47.040;15.294;2022-08-05T13:52:25;25.30;38.70
65038;DHT22;51605;47.040;15.294;2022-08-05T13:54:52;25.30;38.50
65038;DHT22;51605;47.040;15.294;2022-08-05T13:57:18;25.30;38.40
65038;DHT22;51605;47.040;15.294;2022-08-05T13:59:44;25.30;38.40
65038;DHT22;51605;47.040;15.294;2022-08-05T14:02:11;25.30;38.30
65038;DHT22;51605;47.040;15.294;2022-08-05T14:04:42;25.30;38.20
65038;DHT22;51605;47.040;15.294;2022-08-05T14:07:34;25.30;38.10
65038;DHT22;51605;47.040;15.294;2022-08-05T14:10:00;25.30;38.00
65038;DHT22;51605;47.040;15.294;2022-08-05T14:12:26;25.30;37.90
65038;DHT22;51605;47.040;15.294;2022-08-05T14:14:52;25.30;38.10
65038;DHT22;51605;47.040;15.294;2022-08-05T14:17:18;25.30;39.10
65038;DHT22;51605;47.040;15.294;2022-08-05T14:19:44;25.30;38.90
65038;DHT22;51605;47.040;15.294;2022-08-05T14:22:09;25.30;39.20
65038;DHT22;51605;47.040;15.294;2022-08-05T14:24:36;25.30;39.70
65038;DHT22;51605;47.040;15.294;2022-08-05T14:27:02;25.30;39.60
65038;DHT22;51605;47.040;15.294;2022-08-05T14:29:28;25.30;39.20
65038;DHT22;51605;47.040;15.294;2022-08-05T14:31:54;25.30;39.00
65038;DHT22;51605;47.040;15.294;2022-08-05T14:34:20;25.20;38.70
65038;DHT22;51605;47.040;15.294;2022-08-05T14:36:45;25.30;38.70
65038;DHT22;51605;47.040;15.294;2022-08-05T14:39:11;25.30;38.50
65038;DHT22;51605;47.040;15.294;2022-08-05T14:41:37;25.30;38.30
65038;DHT22;51605;47.040;15.294;2022-08-05T14:44:03;25.30;38.20
65038;DHT22;51605;47.040;15.294;2022-08-05T14:46:29;25.30;38.20
65038;DHT22;51605;47.040;15.294;2022-08-05T14:48:57;25.30;38.10
65038;DHT22;51605;47.040;15.294;2022-08-05T14:51:23;25.30;38.10
65038;DHT22;51605;47.040;15.294;2022-08-05T14:53:49;25.30;38.00
65038;DHT22;51605;47.040;15.294;2022-08-05T14:56:15;25.30;39.10
65038;DHT22;51605;47.040;15.294;2022-08-05T14:58:41;25.30;38.90
65038;DHT22;51605;47.040;15.294;2022-08-05T15:01:06;25.30;38.80
65038;DHT22;51605;47.040;15.294;2022-08-05T15:03:33;25.30;39.70
65038;DHT22;51605;47.040;15.294;2022-08-05T15:05:59;25.20;39.60
65038;DHT22;51605;47.040;15.294;2022-08-05T15:08:25;25.30;40.30
65038;DHT22;51605;47.040;15.294;2022-08-05T15:10:51;25.20;40.10
65038;DHT22;51605;47.040;15.294;2022-08-05T15:13:17;25.20;41.00
65038;DHT22;51605;47.040;15.294;2022-08-05T15:15:43;25.20;39.60
65038;DHT22;51605;47.040;15.294;2022-08-05T15:18:09;25.20;39.40
65038;DHT22;51605;47.040;15.294;2022-08-05T15:20:34;25.20;39.10
65038;DHT22;51605;47.040;15.294;2022-08-05T15:23:10;25.20;38.90
65038;DHT22;51605;47.040;15.294;2022-08-05T15:25:37;25.20;38.70
65038;DHT22;51605;47.040;15.294;2022-08-05T15:28:03;25.20;38.60
65038;DHT22;51605;47.040;15.294;2022-08-05T15:30:29;25.30;38.50
65038;DHT22;51605;47.040;15.294;2022-08-05T15:32:59;25.20;38.30
65038;DHT22;51605;47.040;15.294;2022-08-05T15:35:27;25.30;38.30
65038;DHT22;51605;47.040;15.294;2022-08-05T15:37:53;25.30;38.20
65038;DHT22;51605;47.040;15.294;2022-08-05T15:40:19;25.30;38.20
65038;DHT22;51605;47.040;15.294;2022-08-05T15:42:45;25.30;38.10
65038;DHT22;51605;47.040;15.294;2022-08-05T15:45:11;25.30;38.00
65038;DHT22;51605;47.040;15.294;2022-08-05T15:47:37;25.30;37.90
65038;DHT22;51605;47.040;15.294;2022-08-05T15:50:03;25.30;38.70
65038;DHT22;51605;47.040;15.294;2022-08-05T15:52:29;25.30;39.00
65038;DHT22;51605;47.040;15.294;2022-08-05T15:54:57;25.30;38.90
65038;DHT22;51605;47.040;15.294;2022-08-05T15:57:22;25.30;39.60
65038;DHT22;51605;47.040;15.294;2022-08-05T15:59:48;25.30;39.50
65038;DHT22;51605;47.040;15.294;2022-08-05T16:02:14;25.30;39.50